Terminal Aerodrome Forecast
Issued by NWS Albuquerque, NM

Home | Current Version | Previous Version | Text Only | Print | Product List | Glossary On
Versions: 1 2 3 4 5 6 7 8 9 10 11 12 13 14 15 16
000
FTUS45 KABQ 281100
TAFABQ
TAF
KABQ 281132Z 2812/2912 15005KT P6SM SKC
     FM281500 33005KT P6SM SKC
     FM282000 18005KT P6SM SKC
     FM290100 03005KT P6SM SKC
     FM290900 09005KT P6SM SKC=

USA.gov is the U.S. government's official web portal to all federal, state and local government web resources and services.